createdAt,value
2019-01-06T00:00:15.323Z,190.33
2019-01-06T00:03:00.627Z,187.40
2019-01-06T00:05:48.968Z,175.33
2019-01-06T00:08:31.194Z,201.47
2019-01-06T00:11:01.125Z,219.03
2019-01-06T00:13:36.809Z,217.13
2019-01-06T00:16:12.315Z,206.63
2019-01-06T00:18:58.991Z,206.27
2019-01-06T00:21:29.213Z,222.10
2019-01-06T00:24:05.491Z,217.60
2019-01-06T00:26:35.491Z,227.40
2019-01-06T00:29:08.112Z,226.70
2019-01-06T00:31:53.447Z,222.47
2019-01-06T00:34:26.309Z,211.30
2019-01-06T00:36:56.554Z,211.83
2019-01-06T00:39:42.960Z,209.23
2019-01-06T00:42:15.478Z,194.77
2019-01-06T00:44:45.754Z,199.43
2019-01-06T00:47:15.993Z,199.17
2019-01-06T00:50:02.191Z,189.10
2019-01-06T00:52:48.441Z,193.27
2019-01-06T00:55:18.370Z,182.17
2019-01-06T00:57:50.954Z,190.20
2019-01-06T01:00:23.954Z,183.40
2019-01-06T01:03:08.778Z,200.67
2019-01-06T01:05:44.782Z,187.00
2019-01-06T01:08:14.994Z,180.23
2019-01-06T01:10:53.507Z,177.43
2019-01-06T01:13:39.741Z,198.83
2019-01-06T01:16:12.501Z,205.97
2019-01-06T01:18:48.399Z,230.53
2019-01-06T01:21:24.714Z,222.33
2019-01-06T01:24:07.026Z,220.57
2019-01-06T01:26:48.797Z,217.77
2019-01-06T01:29:30.766Z,208.53
2019-01-06T01:32:01.028Z,205.43
2019-01-06T01:34:37.087Z,212.33
2019-01-06T01:37:07.329Z,201.90
2019-01-06T01:39:40.304Z,198.47
2019-01-06T01:42:10.253Z,197.83
2019-01-06T01:44:52.352Z,187.40
2019-01-06T01:47:31.437Z,194.47
2019-01-06T01:50:16.152Z,159.67
2019-01-06T01:52:50.711Z,175.30
2019-01-06T01:55:20.456Z,178.57
2019-01-06T01:57:56.022Z,180.20
2019-01-06T02:00:25.994Z,181.00
2019-01-06T02:03:12.406Z,175.83
2019-01-06T02:05:45.594Z,163.53
2019-01-06T02:08:21.269Z,161.20
2019-01-06T02:10:51.496Z,158.87
2019-01-06T02:13:24.472Z,157.87
2019-01-06T02:16:10.806Z,141.47
2019-01-06T02:18:55.942Z,152.27
2019-01-06T02:21:26.147Z,148.70
2019-01-06T02:24:12.458Z,148.47
2019-01-06T02:26:57.957Z,149.47
2019-01-06T02:29:30.817Z,149.33
2019-01-06T02:32:00.753Z,140.57
2019-01-06T02:34:30.690Z,141.10
2019-01-06T02:37:09.273Z,146.63
2019-01-06T02:39:42.357Z,137.27
2019-01-06T02:42:18.170Z,141.07
2019-01-06T02:44:57.441Z,135.73
2019-01-06T02:47:27.614Z,135.37
2019-01-06T02:50:06.163Z,138.57
2019-01-06T02:52:36.088Z,138.73
2019-01-06T02:55:06.748Z,134.83
2019-01-06T02:57:52.789Z,127.13
2019-01-06T03:00:23.940Z,125.60
2019-01-06T03:03:10.294Z,124.80
2019-01-06T03:05:52.379Z,127.50
2019-01-06T03:08:28.645Z,123.70
2019-01-06T03:11:07.958Z,114.73
2019-01-06T03:13:43.646Z,106.47
2019-01-06T03:16:13.591Z,117.33
2019-01-06T03:18:59.571Z,111.03
2019-01-06T03:21:44.904Z,112.43
2019-01-06T03:24:14.828Z,116.97
2019-01-06T03:26:47.352Z,108.13
2019-01-06T03:29:26.327Z,106.80
2019-01-06T03:32:08.295Z,105.60
2019-01-06T03:34:44.351Z,105.27
2019-01-06T03:37:30.776Z,100.93
2019-01-06T03:40:01.232Z,98.23
2019-01-06T03:42:43.186Z,99.00
2019-01-06T03:45:19.362Z,100.60
2019-01-06T03:47:49.305Z,101.60
2019-01-06T03:50:25.044Z,96.03
2019-01-06T03:52:54.961Z,102.33
2019-01-06T03:55:27.475Z,97.13
2019-01-06T03:58:12.642Z,96.33
2019-01-06T04:00:49.060Z,90.93
2019-01-06T04:03:25.056Z,96.17
2019-01-06T04:05:58.011Z,91.67
2019-01-06T04:08:34.064Z,91.27
2019-01-06T04:11:20.438Z,89.37
2019-01-06T04:14:07.176Z,89.40
2019-01-06T04:16:49.080Z,84.57
2019-01-06T04:19:27.904Z,84.50
2019-01-06T04:22:06.937Z,81.17
2019-01-06T04:24:43.386Z,85.90
2019-01-06T04:27:28.790Z,85.43
2019-01-06T04:29:59.604Z,80.60
2019-01-06T04:32:46.415Z,78.07
2019-01-06T04:35:16.640Z,78.30
2019-01-06T04:38:01.735Z,81.90
2019-01-06T04:40:49.626Z,74.33
2019-01-06T04:43:32.147Z,78.87
2019-01-06T04:46:02.106Z,85.27
2019-01-06T04:48:48.344Z,90.60
2019-01-06T04:51:24.222Z,87.93
2019-01-06T04:54:10.480Z,91.20
2019-01-06T04:56:52.624Z,92.23
2019-01-06T04:59:28.838Z,98.60
2019-01-06T05:01:59.110Z,96.30
2019-01-06T05:04:35.371Z,90.40
2019-01-06T05:07:08.672Z,111.47
2019-01-06T05:09:53.613Z,99.63
2019-01-06T05:12:23.543Z,105.77
2019-01-06T05:15:10.063Z,129.43
2019-01-06T05:17:40.274Z,109.50
2019-01-06T05:20:15.845Z,101.20
2019-01-06T05:23:02.454Z,116.67
2019-01-06T05:25:35.518Z,109.07
2019-01-06T05:28:21.761Z,110.57
2019-01-06T05:31:00.746Z,107.40
2019-01-06T05:33:42.616Z,103.33
2019-01-06T05:36:12.859Z,104.90
2019-01-06T05:38:42.844Z,105.93
2019-01-06T05:41:21.785Z,103.77
2019-01-06T05:43:55.293Z,101.63
2019-01-06T05:46:40.023Z,101.70
2019-01-06T05:49:12.749Z,100.20
2019-01-06T05:51:59.571Z,99.73
2019-01-06T05:54:35.430Z,102.57
2019-01-06T05:57:17.338Z,103.83
2019-01-06T06:00:02.691Z,106.00
2019-01-06T06:02:41.623Z,113.90
2019-01-06T06:05:28.282Z,117.23
2019-01-06T06:07:58.221Z,127.47
2019-01-06T06:10:28.149Z,122.40
2019-01-06T06:13:01.038Z,122.77
2019-01-06T06:15:49.495Z,124.50
2019-01-06T06:18:37.738Z,170.20
2019-01-06T06:21:07.952Z,176.00
2019-01-06T06:23:54.162Z,132.47
2019-01-06T06:26:24.125Z,136.63
2019-01-06T06:29:10.242Z,149.30
2019-01-06T06:31:56.474Z,142.03
2019-01-06T06:34:41.857Z,134.33
2019-01-06T06:37:14.783Z,137.03
2019-01-06T06:39:44.727Z,150.50
2019-01-06T06:42:31.099Z,170.50
2019-01-06T06:45:03.615Z,170.70
2019-01-06T06:47:48.682Z,166.40
2019-01-06T06:50:18.906Z,160.63
2019-01-06T06:52:58.345Z,149.60
2019-01-06T06:55:28.570Z,175.40
2019-01-06T06:58:15.272Z,183.90
2019-01-06T07:01:00.179Z,173.37
2019-01-06T07:03:38.758Z,163.53
2019-01-06T07:06:08.977Z,186.03
2019-01-06T07:08:44.834Z,183.37
2019-01-06T07:11:20.586Z,169.67
2019-01-06T07:13:52.975Z,166.30
2019-01-06T07:17:12.230Z,161.17
2019-01-06T07:19:42.189Z,168.63
2019-01-06T07:22:15.340Z,168.03
2019-01-06T07:24:45.709Z,166.03
2019-01-06T07:27:21.237Z,163.87
2019-01-06T07:30:07.594Z,155.70
2019-01-06T07:35:34.097Z,161.77
2019-01-06T07:38:07.171Z,150.90
2019-01-06T07:40:49.104Z,152.13
2019-01-06T07:43:24.855Z,144.17
2019-01-06T07:45:55.133Z,140.70
2019-01-06T07:48:34.154Z,152.40
2019-01-06T07:51:09.911Z,145.20
2019-01-06T07:53:39.839Z,149.20
2019-01-06T07:56:12.658Z,137.13
2019-01-06T07:58:57.883Z,138.53
2019-01-06T08:01:30.663Z,127.87
2019-01-06T08:04:16.733Z,129.87
2019-01-06T08:06:46.979Z,127.10
2019-01-06T08:09:31.739Z,137.17
2019-01-06T08:12:08.003Z,131.43
2019-01-06T08:14:41.210Z,131.17
2019-01-06T08:17:11.377Z,125.50
2019-01-06T08:19:41.655Z,123.43
2019-01-06T08:22:11.639Z,124.27
2019-01-06T08:24:41.586Z,128.27
2019-01-06T08:27:27.795Z,126.73
2019-01-06T08:29:58.011Z,121.20
2019-01-06T08:32:43.958Z,121.87
2019-01-06T08:35:13.914Z,119.43
2019-01-06T08:37:52.649Z,121.90
2019-01-06T08:40:31.449Z,117.17
2019-01-06T08:43:01.374Z,114.70
2019-01-06T08:45:47.547Z,112.90
2019-01-06T08:48:33.721Z,115.27
2019-01-06T08:51:16.271Z,109.23
2019-01-06T08:56:44.975Z,112.40
2019-01-06T08:59:20.910Z,107.87
2019-01-06T09:02:03.254Z,106.00
2019-01-06T09:04:36.265Z,108.07
2019-01-06T09:07:06.191Z,105.23
2019-01-06T09:09:45.812Z,103.47
2019-01-06T09:12:19.176Z,100.67
2019-01-06T09:15:07.622Z,105.20
2019-01-06T09:17:53.730Z,97.10
2019-01-06T09:20:32.152Z,97.63
2019-01-06T09:23:18.137Z,90.73
2019-01-06T09:25:54.191Z,93.30
2019-01-06T09:28:30.271Z,94.43
2019-01-06T09:31:06.216Z,95.10
2019-01-06T09:33:54.754Z,95.93
2019-01-06T09:36:27.484Z,87.87
2019-01-06T09:38:57.400Z,96.63
2019-01-06T09:41:27.676Z,95.90
2019-01-06T09:44:13.772Z,91.23
2019-01-06T09:46:52.790Z,88.57
2019-01-06T09:49:39.016Z,89.53
2019-01-06T09:52:24.272Z,90.90
2019-01-06T09:54:57.047Z,82.83
2019-01-06T09:57:29.625Z,85.53
2019-01-06T10:00:08.188Z,87.20
2019-01-06T10:02:50.356Z,85.00
2019-01-06T10:05:23.540Z,86.43
2019-01-06T10:07:59.089Z,84.17
2019-01-06T10:10:31.609Z,77.43
2019-01-06T10:13:01.579Z,77.80
2019-01-06T10:15:43.571Z,82.30
2019-01-06T10:18:16.563Z,80.67
2019-01-06T10:20:46.905Z,82.40
2019-01-06T10:23:28.854Z,79.10
2019-01-06T10:25:59.117Z,76.43
2019-01-06T10:28:29.368Z,78.17
2019-01-06T10:31:05.615Z,74.17
2019-01-06T10:33:44.433Z,75.97
2019-01-06T10:39:16.198Z,75.23
2019-01-06T10:41:49.394Z,71.77
2019-01-06T10:44:35.790Z,70.87
2019-01-06T10:47:14.606Z,67.70
2019-01-06T10:49:50.681Z,66.10
2019-01-06T10:52:26.533Z,72.33
2019-01-06T10:55:12.017Z,63.77
2019-01-06T10:57:58.308Z,63.90
2019-01-06T11:00:28.535Z,68.73
2019-01-06T11:03:04.716Z,67.13
2019-01-06T11:05:43.824Z,63.37
2019-01-06T11:08:13.779Z,64.37
2019-01-06T11:10:52.287Z,65.47
2019-01-06T11:13:28.216Z,64.13
2019-01-06T11:15:59.027Z,66.17
2019-01-06T11:18:47.231Z,66.63
2019-01-06T11:21:17.405Z,60.07
2019-01-06T11:23:53.263Z,59.83
2019-01-06T11:26:29.123Z,61.13
2019-01-06T11:29:15.530Z,71.27
2019-01-06T11:31:51.534Z,75.17
2019-01-06T11:34:38.102Z,70.00
2019-01-06T11:37:24.202Z,69.17
2019-01-06T11:40:10.696Z,65.13
2019-01-06T11:42:58.692Z,67.73
2019-01-06T11:45:28.734Z,70.00
2019-01-06T11:48:04.593Z,65.60
2019-01-06T11:50:43.722Z,64.93
2019-01-06T11:53:16.406Z,62.50
2019-01-06T11:55:52.265Z,73.43
2019-01-06T11:58:22.483Z,78.63
2019-01-06T12:00:52.706Z,75.87
2019-01-06T12:03:28.763Z,75.00
2019-01-06T12:06:08.199Z,77.63
2019-01-06T12:08:44.171Z,76.33
2019-01-06T12:11:14.172Z,75.83
2019-01-06T12:13:46.782Z,71.80
2019-01-06T12:16:28.390Z,71.00
2019-01-06T12:19:04.196Z,74.43
2019-01-06T12:21:42.979Z,69.70
2019-01-06T12:24:27.991Z,68.77
2019-01-06T12:27:03.558Z,66.87
2019-01-06T12:29:42.171Z,71.93
2019-01-06T12:32:30.717Z,72.23
2019-01-06T12:35:17.220Z,72.83
2019-01-06T12:38:05.559Z,68.20
2019-01-06T12:40:38.411Z,65.87
2019-01-06T12:43:14.515Z,65.50
2019-01-06T12:46:00.750Z,66.60
2019-01-06T12:48:33.869Z,66.70
2019-01-06T12:51:22.334Z,68.33
2019-01-06T12:53:58.081Z,73.77
2019-01-06T12:56:30.923Z,69.27
2019-01-06T12:59:03.962Z,73.27
2019-01-06T13:01:42.949Z,69.10
2019-01-06T13:04:29.398Z,67.93
2019-01-06T13:07:05.870Z,72.63
2019-01-06T13:09:52.362Z,65.20
2019-01-06T13:12:38.738Z,64.13
2019-01-06T13:15:14.618Z,63.37
2019-01-06T13:17:47.397Z,63.30
2019-01-06T13:20:26.535Z,59.13
2019-01-06T13:22:56.481Z,61.83
2019-01-06T13:25:38.715Z,64.87
2019-01-06T13:28:14.835Z,68.60
2019-01-06T13:30:53.718Z,67.60
2019-01-06T13:33:23.970Z,73.37
2019-01-06T13:36:00.336Z,70.67
2019-01-06T13:38:47.097Z,68.87
2019-01-06T13:41:23.409Z,67.17
2019-01-06T13:43:59.396Z,66.57
2019-01-06T13:46:29.816Z,69.83
2019-01-06T13:49:05.795Z,64.83
2019-01-06T13:51:52.077Z,61.40
2019-01-06T13:54:30.400Z,68.13
2019-01-06T13:57:05.634Z,85.70
2019-01-06T13:59:47.930Z,114.23
2019-01-06T14:02:30.206Z,132.27
2019-01-06T14:05:06.176Z,132.53
2019-01-06T14:07:48.381Z,127.40
2019-01-06T14:10:18.617Z,121.27
2019-01-06T14:12:48.745Z,112.77
2019-01-06T14:15:37.045Z,111.43
2019-01-06T14:18:07.035Z,111.23
2019-01-06T14:20:45.923Z,105.43
2019-01-06T14:23:32.411Z,116.63
2019-01-06T14:26:14.219Z,143.47
2019-01-06T14:29:00.398Z,175.27
2019-01-06T14:31:48.362Z,177.63
2019-01-06T14:34:21.177Z,161.63
2019-01-06T14:36:53.807Z,143.83
2019-01-06T14:39:42.347Z,144.50
2019-01-06T14:42:27.831Z,132.67
2019-01-06T14:45:13.127Z,152.70
2019-01-06T14:47:52.226Z,141.50
2019-01-06T14:50:25.195Z,146.83
2019-01-06T14:53:04.095Z,155.13
2019-01-06T14:55:37.135Z,142.33
2019-01-06T14:58:07.329Z,136.03
2019-01-06T15:00:40.004Z,130.07
2019-01-06T15:03:26.154Z,123.03
2019-01-06T15:06:05.186Z,134.10
2019-01-06T15:08:51.967Z,141.37
2019-01-06T15:11:33.871Z,136.40
2019-01-06T15:14:10.322Z,143.13
2019-01-06T15:16:52.427Z,142.27
2019-01-06T15:19:28.400Z,134.87
2019-01-06T15:22:15.128Z,143.03
2019-01-06T15:24:51.031Z,140.40
2019-01-06T15:27:37.145Z,144.23
2019-01-06T15:30:09.119Z,139.97
2019-01-06T15:32:41.592Z,137.10
2019-01-06T15:35:23.686Z,135.17
2019-01-06T15:38:09.676Z,128.47
2019-01-06T15:40:51.984Z,128.33
2019-01-06T15:43:38.297Z,138.37
2019-01-06T15:46:11.068Z,125.90
2019-01-06T15:48:52.998Z,127.77
2019-01-06T15:54:11.739Z,145.53
2019-01-06T15:56:41.963Z,144.87
2019-01-06T15:59:30.301Z,146.60
2019-01-06T16:02:00.543Z,147.47
2019-01-06T16:04:36.408Z,143.57
2019-01-06T16:07:09.595Z,137.33
2019-01-06T16:09:39.919Z,129.87
2019-01-06T16:12:12.778Z,130.40
2019-01-06T16:14:43.129Z,126.20
2019-01-06T16:17:19.090Z,120.90
2019-01-06T16:19:57.996Z,114.83
2019-01-06T16:22:44.543Z,112.03
2019-01-06T16:25:23.586Z,112.47
2019-01-06T16:27:53.587Z,131.67
2019-01-06T16:30:39.942Z,132.50
2019-01-06T16:33:22.084Z,124.53
2019-01-06T16:36:08.638Z,116.07
2019-01-06T16:38:55.059Z,118.97
2019-01-06T16:41:27.928Z,130.17
2019-01-06T16:44:16.362Z,129.77
2019-01-06T16:46:55.234Z,125.60
2019-01-06T16:49:31.230Z,136.70
2019-01-06T16:52:17.712Z,147.43
2019-01-06T16:54:59.948Z,158.83
2019-01-06T16:57:40.422Z,181.07
2019-01-06T17:00:13.531Z,192.63
2019-01-06T17:03:02.021Z,177.50
2019-01-06T17:05:32.296Z,179.60
2019-01-06T17:08:17.102Z,172.73
2019-01-06T17:10:51.510Z,172.80
2019-01-06T17:13:37.793Z,167.33
2019-01-06T17:16:19.383Z,246.90
2019-01-06T17:19:05.297Z,249.47
2019-01-06T17:21:51.675Z,231.80
2019-01-06T17:24:37.097Z,218.03
2019-01-06T17:27:24.751Z,232.43
2019-01-06T17:30:09.795Z,253.77
2019-01-06T17:32:42.724Z,261.07
2019-01-06T17:35:12.713Z,248.30
2019-01-06T17:37:45.649Z,251.10
2019-01-06T17:40:15.970Z,234.60
2019-01-06T17:42:59.334Z,232.20
2019-01-06T17:45:44.781Z,241.33
2019-01-06T17:48:26.867Z,241.03
2019-01-06T17:51:12.141Z,263.77
2019-01-06T17:53:58.223Z,253.40
2019-01-06T17:56:28.461Z,246.27
2019-01-06T17:59:04.187Z,246.33
2019-01-06T18:01:51.217Z,233.20
2019-01-06T18:04:33.166Z,209.73
2019-01-06T18:07:21.702Z,202.40
2019-01-06T18:10:08.770Z,196.93
2019-01-06T18:12:52.794Z,199.40
2019-01-06T18:15:37.906Z,189.47
2019-01-06T18:18:23.110Z,260.40
2019-01-06T18:21:01.993Z,265.20
2019-01-06T18:23:48.317Z,262.53
2019-01-06T18:26:34.914Z,251.53
2019-01-06T18:29:05.126Z,246.23
2019-01-06T18:31:35.376Z,246.63
2019-01-06T18:34:11.447Z,230.40
2019-01-06T18:36:57.681Z,231.63
2019-01-06T18:39:44.411Z,222.03
2019-01-06T18:42:14.374Z,218.47
2019-01-06T18:45:09.002Z,211.03
2019-01-06T18:47:36.994Z,205.60
2019-01-06T18:50:19.123Z,199.90
2019-01-06T18:52:49.834Z,196.43
2019-01-06T18:55:25.618Z,203.27
2019-01-06T18:57:58.516Z,202.63
2019-01-06T19:00:34.529Z,194.33
2019-01-06T19:03:07.376Z,182.87
2019-01-06T19:05:53.812Z,181.50
2019-01-06T19:08:35.818Z,185.77
2019-01-06T19:11:22.007Z,183.47
2019-01-06T19:14:10.256Z,178.67
2019-01-06T19:16:40.215Z,180.77
2019-01-06T19:19:23.195Z,173.00
2019-01-06T19:22:09.491Z,170.17
2019-01-06T19:24:55.940Z,165.00
2019-01-06T19:27:35.227Z,180.03
2019-01-06T19:30:09.130Z,187.77
2019-01-06T19:32:49.807Z,177.47
2019-01-06T19:35:20.028Z,178.63
2019-01-06T19:38:07.727Z,165.13
2019-01-06T19:40:53.741Z,161.10
2019-01-06T19:43:35.836Z,156.07
2019-01-06T19:46:14.308Z,158.93
2019-01-06T19:48:44.641Z,169.77
2019-01-06T19:51:17.447Z,195.90
2019-01-06T19:53:47.437Z,211.10
2019-01-06T19:56:23.344Z,199.73
2019-01-06T19:59:09.686Z,198.30
2019-01-06T20:01:56.197Z,176.90
2019-01-06T20:04:26.679Z,170.07
2019-01-06T20:07:02.591Z,186.47
2019-01-06T20:09:47.374Z,194.63
2019-01-06T20:12:36.575Z,199.50
2019-01-06T20:15:16.541Z,177.80
2019-01-06T20:17:49.814Z,184.63
2019-01-06T20:20:36.307Z,180.50
2019-01-06T20:23:18.438Z,188.33
2019-01-06T20:25:57.865Z,192.93
2019-01-06T20:28:39.920Z,182.03
2019-01-06T20:31:15.785Z,173.67
2019-01-06T20:33:54.626Z,187.43
2019-01-06T20:36:30.399Z,199.60
2019-01-06T20:39:16.446Z,206.40
2019-01-06T20:42:04.609Z,197.00
2019-01-06T20:44:46.517Z,185.40
2019-01-06T20:47:16.716Z,177.07
2019-01-06T20:49:54.159Z,180.93
2019-01-06T20:52:41.907Z,172.17
2019-01-06T20:55:18.152Z,159.90
2019-01-06T20:57:51.007Z,150.73
2019-01-06T21:00:23.883Z,143.13
2019-01-06T21:03:02.774Z,146.43
2019-01-06T21:05:35.491Z,147.73
2019-01-06T21:08:05.674Z,162.13
2019-01-06T21:10:44.894Z,155.93
2019-01-06T21:13:30.060Z,167.97
2019-01-06T21:16:16.546Z,179.87
2019-01-06T21:18:55.382Z,182.30
2019-01-06T21:21:25.333Z,168.63
2019-01-06T21:23:58.469Z,163.83
2019-01-06T21:26:28.408Z,163.20
2019-01-06T21:28:58.697Z,170.40
2019-01-06T21:31:38.027Z,174.27
2019-01-06T21:34:24.263Z,178.67
2019-01-06T21:37:11.139Z,164.13
2019-01-06T21:39:51.782Z,164.07
2019-01-06T21:42:21.991Z,157.70
2019-01-06T21:45:08.744Z,146.00
2019-01-06T21:47:55.330Z,151.10
2019-01-06T21:50:25.572Z,145.47
2019-01-06T21:53:10.864Z,139.93
2019-01-06T21:55:56.026Z,141.30
2019-01-06T21:58:40.877Z,135.50
2019-01-06T22:01:22.941Z,138.33
2019-01-06T22:03:59.057Z,136.20
2019-01-06T22:06:32.127Z,128.10
2019-01-06T22:09:02.354Z,146.97
2019-01-06T22:11:41.149Z,161.00
2019-01-06T22:14:29.102Z,176.40
2019-01-06T22:17:02.200Z,170.57
2019-01-06T22:19:38.150Z,159.13
2019-01-06T22:22:12.288Z,157.87
2019-01-06T22:24:42.692Z,164.83
2019-01-06T22:27:12.915Z,185.53
2019-01-06T22:29:45.572Z,215.43
2019-01-06T22:32:21.342Z,216.60
2019-01-06T22:35:03.411Z,217.57
2019-01-06T22:37:36.131Z,223.53
2019-01-06T22:40:06.651Z,221.40
2019-01-06T22:42:39.442Z,218.67
2019-01-06T22:45:26.122Z,213.13
2019-01-06T22:48:12.450Z,207.33
2019-01-06T22:50:48.407Z,203.20
2019-01-06T22:53:35.117Z,203.27
2019-01-06T22:56:23.463Z,196.77
2019-01-06T22:58:56.350Z,188.63
2019-01-06T23:01:35.382Z,190.10
2019-01-06T23:04:08.370Z,190.37
2019-01-06T23:06:55.086Z,188.03
2019-01-06T23:09:27.851Z,178.63
2019-01-06T23:12:13.125Z,177.87
2019-01-06T23:14:46.219Z,154.27
2019-01-06T23:17:16.249Z,149.53
2019-01-06T23:19:52.082Z,168.80
2019-01-06T23:22:22.326Z,178.77
2019-01-06T23:24:52.526Z,178.47
2019-01-06T23:27:28.167Z,188.77
2019-01-06T23:29:58.142Z,181.63
2019-01-06T23:32:30.714Z,192.13
2019-01-06T23:35:17.175Z,186.83
2019-01-06T23:37:47.401Z,182.30
2019-01-06T23:40:19.915Z,178.97
2019-01-06T23:42:52.395Z,172.10
2019-01-06T23:45:31.275Z,177.00
2019-01-06T23:48:17.558Z,168.77
2019-01-06T23:50:56.251Z,165.47
2019-01-06T23:53:42.627Z,154.60
2019-01-06T23:56:15.272Z,150.93
2019-01-06T23:58:51.554Z,164.20
